sensor_id;sensor_type;location;lat;lon;timestamp;P1;durP1;ratioP1;P2;durP2;ratioP2
16015;SDS011;8112;53.592;10.184;2024-02-23T00:00:39;1.10;;;0.73;;
16015;SDS011;8112;53.592;10.184;2024-02-23T00:05:43;1.00;;;0.70;;
16015;SDS011;8112;53.592;10.184;2024-02-23T00:10:47;1.00;;;0.87;;
16015;SDS011;8112;53.592;10.184;2024-02-23T00:15:48;2.50;;;0.87;;
16015;SDS011;8112;53.592;10.184;2024-02-23T00:20:52;1.20;;;1.10;;
16015;SDS011;8112;53.592;10.184;2024-02-23T00:25:58;1.63;;;1.07;;
16015;SDS011;8112;53.592;10.184;2024-02-23T00:31:00;1.87;;;1.17;;
16015;SDS011;8112;53.592;10.184;2024-02-23T00:36:02;0.80;;;0.70;;
16015;SDS011;8112;53.592;10.184;2024-02-23T00:41:06;0.83;;;0.83;;
16015;SDS011;8112;53.592;10.184;2024-02-23T00:46:08;0.70;;;0.70;;
16015;SDS011;8112;53.592;10.184;2024-02-23T00:51:10;1.80;;;0.60;;
16015;SDS011;8112;53.592;10.184;2024-02-23T00:56:14;1.47;;;0.83;;
16015;SDS011;8112;53.592;10.184;2024-02-23T01:01:15;1.70;;;0.73;;
16015;SDS011;8112;53.592;10.184;2024-02-23T01:06:20;0.80;;;0.60;;
16015;SDS011;8112;53.592;10.184;2024-02-23T01:11:24;1.60;;;0.70;;
16015;SDS011;8112;53.592;10.184;2024-02-23T01:16:25;1.70;;;0.60;;
16015;SDS011;8112;53.592;10.184;2024-02-23T01:21:27;0.50;;;0.50;;
16015;SDS011;8112;53.592;10.184;2024-02-23T01:26:31;0.70;;;0.70;;
16015;SDS011;8112;53.592;10.184;2024-02-23T01:31:34;0.60;;;0.60;;
16015;SDS011;8112;53.592;10.184;2024-02-23T01:36:36;1.37;;;0.80;;
16015;SDS011;8112;53.592;10.184;2024-02-23T01:41:41;1.33;;;0.80;;
16015;SDS011;8112;53.592;10.184;2024-02-23T01:46:44;1.33;;;0.80;;
16015;SDS011;8112;53.592;10.184;2024-02-23T01:51:47;0.73;;;0.73;;
16015;SDS011;8112;53.592;10.184;2024-02-23T01:56:51;1.13;;;0.90;;
16015;SDS011;8112;53.592;10.184;2024-02-23T02:01:54;0.80;;;0.80;;
16015;SDS011;8112;53.592;10.184;2024-02-23T02:06:58;0.70;;;0.70;;
16015;SDS011;8112;53.592;10.184;2024-02-23T02:12:02;0.50;;;0.50;;
16015;SDS011;8112;53.592;10.184;2024-02-23T02:17:04;0.60;;;0.60;;
16015;SDS011;8112;53.592;10.184;2024-02-23T02:22:07;1.07;;;0.63;;
16015;SDS011;8112;53.592;10.184;2024-02-23T02:27:10;0.50;;;0.40;;
16015;SDS011;8112;53.592;10.184;2024-02-23T02:32:12;0.50;;;0.50;;
16015;SDS011;8112;53.592;10.184;2024-02-23T02:37:14;0.63;;;0.47;;
16015;SDS011;8112;53.592;10.184;2024-02-23T02:42:18;0.90;;;0.50;;
16015;SDS011;8112;53.592;10.184;2024-02-23T02:47:19;0.67;;;0.50;;
16015;SDS011;8112;53.592;10.184;2024-02-23T02:52:21;0.50;;;0.50;;
16015;SDS011;8112;53.592;10.184;2024-02-23T02:57:25;0.40;;;0.40;;
16015;SDS011;8112;53.592;10.184;2024-02-23T03:02:27;0.50;;;0.50;;
16015;SDS011;8112;53.592;10.184;2024-02-23T03:07:29;0.40;;;0.40;;
16015;SDS011;8112;53.592;10.184;2024-02-23T03:12:32;0.57;;;0.50;;
16015;SDS011;8112;53.592;10.184;2024-02-23T03:17:34;2.53;;;0.50;;
16015;SDS011;8112;53.592;10.184;2024-02-23T03:22:38;0.80;;;0.60;;
16015;SDS011;8112;53.592;10.184;2024-02-23T03:27:42;0.60;;;0.60;;
16015;SDS011;8112;53.592;10.184;2024-02-23T03:32:44;1.00;;;0.90;;
16015;SDS011;8112;53.592;10.184;2024-02-23T03:37:47;0.80;;;0.80;;
16015;SDS011;8112;53.592;10.184;2024-02-23T03:42:50;1.47;;;1.30;;
16015;SDS011;8112;53.592;10.184;2024-02-23T03:47:52;0.83;;;0.83;;
16015;SDS011;8112;53.592;10.184;2024-02-23T03:52:54;1.73;;;0.67;;
16015;SDS011;8112;53.592;10.184;2024-02-23T03:57:59;2.23;;;0.80;;
16015;SDS011;8112;53.592;10.184;2024-02-23T04:03:01;1.10;;;1.00;;
16015;SDS011;8112;53.592;10.184;2024-02-23T04:08:03;0.93;;;0.80;;
16015;SDS011;8112;53.592;10.184;2024-02-23T04:13:07;0.70;;;0.70;;
16015;SDS011;8112;53.592;10.184;2024-02-23T04:18:09;2.30;;;1.00;;
16015;SDS011;8112;53.592;10.184;2024-02-23T04:23:13;0.93;;;0.83;;
16015;SDS011;8112;53.592;10.184;2024-02-23T04:28:16;1.00;;;0.90;;
16015;SDS011;8112;53.592;10.184;2024-02-23T04:33:18;1.80;;;0.90;;
16015;SDS011;8112;53.592;10.184;2024-02-23T04:38:22;3.30;;;2.10;;
16015;SDS011;8112;53.592;10.184;2024-02-23T04:43:26;1.40;;;1.17;;
16015;SDS011;8112;53.592;10.184;2024-02-23T04:48:28;1.40;;;1.30;;
16015;SDS011;8112;53.592;10.184;2024-02-23T04:53:31;1.83;;;1.60;;
16015;SDS011;8112;53.592;10.184;2024-02-23T04:58:36;2.80;;;1.30;;
16015;SDS011;8112;53.592;10.184;2024-02-23T05:03:38;4.37;;;1.43;;
16015;SDS011;8112;53.592;10.184;2024-02-23T05:08:40;1.77;;;1.17;;
16015;SDS011;8112;53.592;10.184;2024-02-23T05:13:43;1.90;;;1.50;;
16015;SDS011;8112;53.592;10.184;2024-02-23T05:18:45;3.33;;;1.80;;
16015;SDS011;8112;53.592;10.184;2024-02-23T05:23:47;4.33;;;1.53;;
16015;SDS011;8112;53.592;10.184;2024-02-23T05:28:53;4.97;;;1.53;;
16015;SDS011;8112;53.592;10.184;2024-02-23T05:33:56;3.87;;;1.77;;
16015;SDS011;8112;53.592;10.184;2024-02-23T05:38:58;5.33;;;1.93;;
16015;SDS011;8112;53.592;10.184;2024-02-23T05:44:05;2.70;;;1.37;;
16015;SDS011;8112;53.592;10.184;2024-02-23T05:49:07;1.80;;;1.70;;
16015;SDS011;8112;53.592;10.184;2024-02-23T05:54:12;5.20;;;2.17;;
16015;SDS011;8112;53.592;10.184;2024-02-23T05:59:17;3.03;;;1.80;;
16015;SDS011;8112;53.592;10.184;2024-02-23T06:04:18;1.80;;;1.67;;
16015;SDS011;8112;53.592;10.184;2024-02-23T06:09:20;4.50;;;1.57;;
16015;SDS011;8112;53.592;10.184;2024-02-23T06:14:24;3.53;;;1.60;;
16015;SDS011;8112;53.592;10.184;2024-02-23T06:19:26;2.47;;;1.47;;
16015;SDS011;8112;53.592;10.184;2024-02-23T06:24:29;1.53;;;1.43;;
16015;SDS011;8112;53.592;10.184;2024-02-23T06:29:32;2.50;;;1.10;;
16015;SDS011;8112;53.592;10.184;2024-02-23T06:34:34;3.13;;;1.60;;
16015;SDS011;8112;53.592;10.184;2024-02-23T06:39:36;1.30;;;1.20;;
16015;SDS011;8112;53.592;10.184;2024-02-23T06:44:40;4.17;;;1.67;;
16015;SDS011;8112;53.592;10.184;2024-02-23T06:49:43;2.30;;;1.30;;
16015;SDS011;8112;53.592;10.184;2024-02-23T06:54:45;3.03;;;1.60;;
16015;SDS011;8112;53.592;10.184;2024-02-23T06:59:51;2.77;;;1.77;;
16015;SDS011;8112;53.592;10.184;2024-02-23T07:04:53;2.47;;;1.60;;
16015;SDS011;8112;53.592;10.184;2024-02-23T07:09:56;2.17;;;1.80;;
16015;SDS011;8112;53.592;10.184;2024-02-23T07:15:00;2.20;;;2.00;;
16015;SDS011;8112;53.592;10.184;2024-02-23T07:20:02;3.97;;;1.80;;
16015;SDS011;8112;53.592;10.184;2024-02-23T07:25:07;3.10;;;2.10;;
16015;SDS011;8112;53.592;10.184;2024-02-23T07:30:12;2.83;;;2.03;;
16015;SDS011;8112;53.592;10.184;2024-02-23T07:35:15;4.37;;;2.13;;
16015;SDS011;8112;53.592;10.184;2024-02-23T07:40:17;4.03;;;1.87;;
16015;SDS011;8112;53.592;10.184;2024-02-23T07:45:21;5.10;;;2.10;;
16015;SDS011;8112;53.592;10.184;2024-02-23T07:50:25;2.87;;;2.00;;
16015;SDS011;8112;53.592;10.184;2024-02-23T07:55:27;3.87;;;2.23;;
16015;SDS011;8112;53.592;10.184;2024-02-23T08:00:31;3.60;;;1.77;;
16015;SDS011;8112;53.592;10.184;2024-02-23T08:05:35;4.60;;;1.83;;
16015;SDS011;8112;53.592;10.184;2024-02-23T08:10:37;3.00;;;1.90;;
16015;SDS011;8112;53.592;10.184;2024-02-23T08:15:41;2.80;;;1.57;;
16015;SDS011;8112;53.592;10.184;2024-02-23T08:20:43;2.47;;;1.57;;
16015;SDS011;8112;53.592;10.184;2024-02-23T08:25:44;4.40;;;2.10;;
16015;SDS011;8112;53.592;10.184;2024-02-23T08:30:49;3.87;;;2.00;;
16015;SDS011;8112;53.592;10.184;2024-02-23T08:35:52;2.93;;;1.60;;
16015;SDS011;8112;53.592;10.184;2024-02-23T08:40:54;2.03;;;1.50;;
16015;SDS011;8112;53.592;10.184;2024-02-23T08:46:00;3.70;;;1.83;;
16015;SDS011;8112;53.592;10.184;2024-02-23T08:51:02;3.33;;;1.50;;
16015;SDS011;8112;53.592;10.184;2024-02-23T08:56:05;1.93;;;1.60;;
16015;SDS011;8112;53.592;10.184;2024-02-23T09:01:09;3.83;;;1.50;;
16015;SDS011;8112;53.592;10.184;2024-02-23T09:06:11;4.43;;;1.57;;
16015;SDS011;8112;53.592;10.184;2024-02-23T09:11:13;4.53;;;1.43;;
16015;SDS011;8112;53.592;10.184;2024-02-23T09:16:17;2.03;;;1.50;;
16015;SDS011;8112;53.592;10.184;2024-02-23T09:21:19;4.57;;;1.50;;
16015;SDS011;8112;53.592;10.184;2024-02-23T09:26:21;2.17;;;1.47;;
16015;SDS011;8112;53.592;10.184;2024-02-23T09:31:24;3.83;;;1.37;;
16015;SDS011;8112;53.592;10.184;2024-02-23T09:36:28;3.67;;;1.60;;
16015;SDS011;8112;53.592;10.184;2024-02-23T09:41:30;5.33;;;1.70;;
16015;SDS011;8112;53.592;10.184;2024-02-23T09:46:36;4.60;;;1.30;;
16015;SDS011;8112;53.592;10.184;2024-02-23T09:51:38;4.97;;;1.40;;
16015;SDS011;8112;53.592;10.184;2024-02-23T09:56:41;2.77;;;1.73;;
16015;SDS011;8112;53.592;10.184;2024-02-23T10:01:45;2.77;;;1.63;;
16015;SDS011;8112;53.592;10.184;2024-02-23T10:06:47;1.80;;;1.40;;
16015;SDS011;8112;53.592;10.184;2024-02-23T10:11:51;6.40;;;4.00;;
16015;SDS011;8112;53.592;10.184;2024-02-23T10:16:56;6.50;;;2.47;;
16015;SDS011;8112;53.592;10.184;2024-02-23T10:21:58;4.87;;;1.90;;
16015;SDS011;8112;53.592;10.184;2024-02-23T10:27:01;3.93;;;1.60;;
16015;SDS011;8112;53.592;10.184;2024-02-23T10:32:05;2.73;;;1.57;;
16015;SDS011;8112;53.592;10.184;2024-02-23T10:37:08;3.57;;;1.67;;
16015;SDS011;8112;53.592;10.184;2024-02-23T10:42:12;3.47;;;1.33;;
16015;SDS011;8112;53.592;10.184;2024-02-23T10:47:18;1.90;;;1.40;;
16015;SDS011;8112;53.592;10.184;2024-02-23T11:49:30;2.83;;;1.93;;
16015;SDS011;8112;53.592;10.184;2024-02-23T11:54:32;3.57;;;1.33;;
16015;SDS011;8112;53.592;10.184;2024-02-23T11:59:34;3.57;;;1.33;;
16015;SDS011;8112;53.592;10.184;2024-02-23T12:04:38;3.43;;;1.17;;
16015;SDS011;8112;53.592;10.184;2024-02-23T12:09:39;2.60;;;1.50;;
16015;SDS011;8112;53.592;10.184;2024-02-23T12:14:42;1.27;;;1.17;;
16015;SDS011;8112;53.592;10.184;2024-02-23T12:19:46;3.30;;;1.40;;
16015;SDS011;8112;53.592;10.184;2024-02-23T12:31:00;3.00;;;1.40;;
16015;SDS011;8112;53.592;10.184;2024-02-23T12:36:02;2.77;;;1.10;;
16015;SDS011;8112;53.592;10.184;2024-02-23T12:41:05;2.13;;;1.13;;
16015;SDS011;8112;53.592;10.184;2024-02-23T13:07:36;2.77;;;1.40;;
16015;SDS011;8112;53.592;10.184;2024-02-23T13:12:40;2.27;;;1.20;;
16015;SDS011;8112;53.592;10.184;2024-02-23T13:17:43;2.87;;;0.97;;
16015;SDS011;8112;53.592;10.184;2024-02-23T13:22:46;1.97;;;1.13;;
16015;SDS011;8112;53.592;10.184;2024-02-23T13:27:48;2.33;;;1.10;;
16015;SDS011;8112;53.592;10.184;2024-02-23T13:32:50;3.63;;;1.10;;
16015;SDS011;8112;53.592;10.184;2024-02-23T13:37:53;1.30;;;0.97;;
16015;SDS011;8112;53.592;10.184;2024-02-23T13:42:57;1.13;;;0.80;;
16015;SDS011;8112;53.592;10.184;2024-02-23T13:48:02;1.93;;;1.00;;
16015;SDS011;8112;53.592;10.184;2024-02-23T13:53:08;1.00;;;0.90;;
16015;SDS011;8112;53.592;10.184;2024-02-23T13:58:10;1.63;;;1.00;;
16015;SDS011;8112;53.592;10.184;2024-02-23T14:03:15;2.47;;;1.10;;
16015;SDS011;8112;53.592;10.184;2024-02-23T14:08:21;0.90;;;0.87;;
16015;SDS011;8112;53.592;10.184;2024-02-23T14:13:24;1.60;;;0.90;;
16015;SDS011;8112;53.592;10.184;2024-02-23T14:18:27;1.23;;;0.90;;
16015;SDS011;8112;53.592;10.184;2024-02-23T14:23:31;1.10;;;1.00;;
16015;SDS011;8112;53.592;10.184;2024-02-23T14:28:34;2.57;;;0.93;;
16015;SDS011;8112;53.592;10.184;2024-02-23T14:33:35;1.47;;;1.00;;
16015;SDS011;8112;53.592;10.184;2024-02-23T14:38:40;1.67;;;1.20;;
16015;SDS011;8112;53.592;10.184;2024-02-23T14:43:44;1.37;;;1.10;;
16015;SDS011;8112;53.592;10.184;2024-02-23T14:48:47;1.50;;;0.80;;
16015;SDS011;8112;53.592;10.184;2024-02-23T14:53:50;1.00;;;0.70;;
16015;SDS011;8112;53.592;10.184;2024-02-23T14:58:56;1.87;;;0.63;;
16015;SDS011;8112;53.592;10.184;2024-02-23T15:03:58;1.77;;;1.00;;
16015;SDS011;8112;53.592;10.184;2024-02-23T15:09:01;1.30;;;0.83;;
16015;SDS011;8112;53.592;10.184;2024-02-23T15:14:03;2.13;;;1.00;;
16015;SDS011;8112;53.592;10.184;2024-02-23T15:19:05;2.50;;;1.00;;
16015;SDS011;8112;53.592;10.184;2024-02-23T15:24:10;1.87;;;0.80;;
16015;SDS011;8112;53.592;10.184;2024-02-23T15:29:13;2.77;;;1.00;;
16015;SDS011;8112;53.592;10.184;2024-02-23T15:34:15;1.40;;;1.00;;
16015;SDS011;8112;53.592;10.184;2024-02-23T15:39:18;2.43;;;1.43;;
16015;SDS011;8112;53.592;10.184;2024-02-23T15:44:20;2.13;;;1.20;;
16015;SDS011;8112;53.592;10.184;2024-02-23T15:49:23;1.57;;;1.00;;
16015;SDS011;8112;53.592;10.184;2024-02-23T15:54:26;2.70;;;1.30;;
16015;SDS011;8112;53.592;10.184;2024-02-23T15:59:30;2.63;;;1.50;;
16015;SDS011;8112;53.592;10.184;2024-02-23T16:04:31;2.87;;;1.03;;
16015;SDS011;8112;53.592;10.184;2024-02-23T16:09:35;2.10;;;1.00;;
16015;SDS011;8112;53.592;10.184;2024-02-23T16:14:37;1.57;;;1.20;;
16015;SDS011;8112;53.592;10.184;2024-02-23T16:19:40;2.70;;;1.17;;
16015;SDS011;8112;53.592;10.184;2024-02-23T16:24:44;1.77;;;1.20;;
16015;SDS011;8112;53.592;10.184;2024-02-23T16:29:46;2.20;;;1.10;;
16015;SDS011;8112;53.592;10.184;2024-02-23T16:34:48;2.50;;;1.07;;
16015;SDS011;8112;53.592;10.184;2024-02-23T16:39:53;1.17;;;1.07;;
16015;SDS011;8112;53.592;10.184;2024-02-23T16:44:55;1.53;;;1.17;;
16015;SDS011;8112;53.592;10.184;2024-02-23T16:49:57;3.23;;;1.40;;
16015;SDS011;8112;53.592;10.184;2024-02-23T16:55:02;1.97;;;1.00;;
16015;SDS011;8112;53.592;10.184;2024-02-23T17:00:04;1.20;;;1.00;;
16015;SDS011;8112;53.592;10.184;2024-02-23T17:05:07;2.37;;;1.40;;
16015;SDS011;8112;53.592;10.184;2024-02-23T17:10:11;1.60;;;1.00;;
16015;SDS011;8112;53.592;10.184;2024-02-23T17:15:13;2.10;;;1.20;;
16015;SDS011;8112;53.592;10.184;2024-02-23T17:20:15;3.70;;;1.60;;
16015;SDS011;8112;53.592;10.184;2024-02-23T17:25:19;2.97;;;1.03;;
16015;SDS011;8112;53.592;10.184;2024-02-23T17:30:21;1.73;;;1.20;;
16015;SDS011;8112;53.592;10.184;2024-02-23T17:35:25;2.43;;;1.33;;
16015;SDS011;8112;53.592;10.184;2024-02-23T17:40:28;2.87;;;1.87;;
16015;SDS011;8112;53.592;10.184;2024-02-23T17:45:30;1.23;;;1.10;;
16015;SDS011;8112;53.592;10.184;2024-02-23T17:50:32;4.13;;;1.73;;
16015;SDS011;8112;53.592;10.184;2024-02-23T17:55:36;2.80;;;1.33;;
16015;SDS011;8112;53.592;10.184;2024-02-23T18:00:41;3.07;;;1.50;;
16015;SDS011;8112;53.592;10.184;2024-02-23T18:05:44;2.13;;;1.50;;
16015;SDS011;8112;53.592;10.184;2024-02-23T18:10:47;2.07;;;1.40;;
16015;SDS011;8112;53.592;10.184;2024-02-23T18:15:49;2.87;;;1.30;;
16015;SDS011;8112;53.592;10.184;2024-02-23T18:20:53;5.70;;;1.77;;
16015;SDS011;8112;53.592;10.184;2024-02-23T18:26:00;2.77;;;1.50;;
16015;SDS011;8112;53.592;10.184;2024-02-23T18:31:04;2.40;;;1.97;;
16015;SDS011;8112;53.592;10.184;2024-02-23T18:36:06;3.30;;;1.30;;
16015;SDS011;8112;53.592;10.184;2024-02-23T18:41:15;2.40;;;1.53;;
16015;SDS011;8112;53.592;10.184;2024-02-23T18:46:18;2.97;;;1.40;;
16015;SDS011;8112;53.592;10.184;2024-02-23T18:51:20;1.40;;;1.30;;
16015;SDS011;8112;53.592;10.184;2024-02-23T18:56:25;2.83;;;1.63;;
16015;SDS011;8112;53.592;10.184;2024-02-23T19:01:29;2.60;;;1.67;;
16015;SDS011;8112;53.592;10.184;2024-02-23T19:06:31;1.37;;;1.27;;
16015;SDS011;8112;53.592;10.184;2024-02-23T19:11:35;2.47;;;1.70;;
16015;SDS011;8112;53.592;10.184;2024-02-23T19:16:38;5.67;;;1.70;;
16015;SDS011;8112;53.592;10.184;2024-02-23T19:21:40;1.70;;;1.40;;
16015;SDS011;8112;53.592;10.184;2024-02-23T19:26:44;1.50;;;1.40;;
16015;SDS011;8112;53.592;10.184;2024-02-23T19:31:46;1.93;;;1.40;;
16015;SDS011;8112;53.592;10.184;2024-02-23T19:36:48;3.07;;;1.50;;
16015;SDS011;8112;53.592;10.184;2024-02-23T19:41:56;1.30;;;1.20;;
16015;SDS011;8112;53.592;10.184;2024-02-23T19:46:57;3.00;;;1.73;;
16015;SDS011;8112;53.592;10.184;2024-02-23T19:52:00;3.37;;;1.93;;
16015;SDS011;8112;53.592;10.184;2024-02-23T19:57:04;4.03;;;2.13;;
16015;SDS011;8112;53.592;10.184;2024-02-23T20:02:07;1.53;;;1.30;;
16015;SDS011;8112;53.592;10.184;2024-02-23T20:07:13;1.73;;;1.33;;
16015;SDS011;8112;53.592;10.184;2024-02-23T20:12:19;2.57;;;1.50;;
16015;SDS011;8112;53.592;10.184;2024-02-23T20:17:24;2.40;;;1.50;;
16015;SDS011;8112;53.592;10.184;2024-02-23T20:22:28;4.20;;;2.30;;
16015;SDS011;8112;53.592;10.184;2024-02-23T20:27:31;5.73;;;3.60;;
16015;SDS011;8112;53.592;10.184;2024-02-23T20:32:35;5.40;;;3.07;;
16015;SDS011;8112;53.592;10.184;2024-02-23T20:37:38;4.33;;;2.43;;
16015;SDS011;8112;53.592;10.184;2024-02-23T20:42:43;4.40;;;2.10;;
16015;SDS011;8112;53.592;10.184;2024-02-23T20:47:46;3.67;;;3.00;;
16015;SDS011;8112;53.592;10.184;2024-02-23T20:52:49;5.17;;;3.90;;
16015;SDS011;8112;53.592;10.184;2024-02-23T20:57:52;4.67;;;4.10;;
16015;SDS011;8112;53.592;10.184;2024-02-23T21:02:55;6.43;;;4.30;;
16015;SDS011;8112;53.592;10.184;2024-02-23T21:07:57;5.87;;;3.77;;
16015;SDS011;8112;53.592;10.184;2024-02-23T21:13:01;5.87;;;4.40;;
16015;SDS011;8112;53.592;10.184;2024-02-23T21:18:05;13.47;;;6.13;;
16015;SDS011;8112;53.592;10.184;2024-02-23T21:23:08;4.57;;;3.40;;
16015;SDS011;8112;53.592;10.184;2024-02-23T21:28:12;4.37;;;2.83;;
16015;SDS011;8112;53.592;10.184;2024-02-23T21:33:14;2.30;;;2.10;;
16015;SDS011;8112;53.592;10.184;2024-02-23T21:38:15;2.50;;;2.10;;
16015;SDS011;8112;53.592;10.184;2024-02-23T21:43:19;4.23;;;1.70;;
16015;SDS011;8112;53.592;10.184;2024-02-23T21:48:21;3.40;;;1.80;;
16015;SDS011;8112;53.592;10.184;2024-02-23T21:53:23;2.93;;;1.90;;
16015;SDS011;8112;53.592;10.184;2024-02-23T21:58:27;3.73;;;1.63;;
16015;SDS011;8112;53.592;10.184;2024-02-23T22:03:28;2.57;;;2.00;;
16015;SDS011;8112;53.592;10.184;2024-02-23T22:08:32;2.43;;;1.93;;
16015;SDS011;8112;53.592;10.184;2024-02-23T22:13:38;3.43;;;1.93;;
16015;SDS011;8112;53.592;10.184;2024-02-23T22:18:44;2.73;;;1.87;;
16015;SDS011;8112;53.592;10.184;2024-02-23T22:23:45;2.33;;;1.87;;
16015;SDS011;8112;53.592;10.184;2024-02-23T22:28:51;3.67;;;2.30;;
16015;SDS011;8112;53.592;10.184;2024-02-23T22:33:54;3.17;;;1.77;;
16015;SDS011;8112;53.592;10.184;2024-02-23T22:38:56;2.57;;;1.77;;
16015;SDS011;8112;53.592;10.184;2024-02-23T22:44:00;5.77;;;2.03;;
16015;SDS011;8112;53.592;10.184;2024-02-23T22:49:02;2.23;;;1.60;;
16015;SDS011;8112;53.592;10.184;2024-02-23T22:54:04;1.50;;;1.40;;
16015;SDS011;8112;53.592;10.184;2024-02-23T22:59:07;1.57;;;1.47;;
16015;SDS011;8112;53.592;10.184;2024-02-23T23:04:10;2.40;;;1.70;;
16015;SDS011;8112;53.592;10.184;2024-02-23T23:09:12;1.70;;;1.43;;
16015;SDS011;8112;53.592;10.184;2024-02-23T23:14:15;3.23;;;1.70;;
16015;SDS011;8112;53.592;10.184;2024-02-23T23:19:17;3.93;;;1.90;;
16015;SDS011;8112;53.592;10.184;2024-02-23T23:24:23;1.80;;;1.70;;
16015;SDS011;8112;53.592;10.184;2024-02-23T23:29:26;1.77;;;1.33;;
16015;SDS011;8112;53.592;10.184;2024-02-23T23:34:29;2.67;;;1.70;;
16015;SDS011;8112;53.592;10.184;2024-02-23T23:39:31;2.03;;;1.40;;
16015;SDS011;8112;53.592;10.184;2024-02-23T23:44:42;1.77;;;1.60;;
16015;SDS011;8112;53.592;10.184;2024-02-23T23:49:47;1.60;;;1.50;;
16015;SDS011;8112;53.592;10.184;2024-02-23T23:54:49;3.97;;;1.60;;
16015;SDS011;8112;53.592;10.184;2024-02-23T23:59:53;2.13;;;1.57;;
